Weather Data

Pearl Creek Farm: 8878 N Farm Road 75, Walnut Grove MO 65770

<== Previous Day (Monday 27 Jan 2014) | Next Day (Wednesday 29 Jan 2014) ==>

Summary Precipitation Data For Tuesday 28 January 2014

ElementValueUnits
Precipitation0"
Notes(none)
SourcePearl Creek Farm

Summary Temperature Data For Tuesday 28 January 2014

ElementValueUnits
High Temperature24 oF
Low Temperature10 oF
Average Temperature16 oF
High Humidity71 %
Low Humidity38 %
Average Humidity52 %
SourcePearl Creek Farm

Detail Temperature Data For Tuesday 28 January 2014

Date / TimeTemp (F)RH (%)Dew Pt (F)Report Date / TimeSource
2014-01-28 00:00:00 13 47 -3.4 2014-02-09 14:43:36 Pearl Creek Farm
2014-01-28 00:30:00 13 48 -2.9 2014-02-09 14:43:36 Pearl Creek Farm
2014-01-28 01:00:00 13 48 -3.1 2014-02-09 14:43:36 Pearl Creek Farm
2014-01-28 01:30:00 13 48 -2.9 2014-02-09 14:43:36 Pearl Creek Farm
2014-01-28 02:00:00 13 49 -2.7 2014-02-09 14:43:36 Pearl Creek Farm
2014-01-28 02:30:00 13 48 -3.1 2014-02-09 14:43:36 Pearl Creek Farm
2014-01-28 03:00:00 12 49 -3.6 2014-02-09 14:43:36 Pearl Creek Farm
2014-01-28 03:30:00 13 49 -2.7 2014-02-09 14:43:36 Pearl Creek Farm
2014-01-28 04:00:00 12 49 -3.4 2014-02-09 14:43:36 Pearl Creek Farm
2014-01-28 04:30:00 12 49 -3.6 2014-02-09 14:43:36 Pearl Creek Farm
2014-01-28 05:00:00 13 51 -1.9 2014-02-09 14:43:36 Pearl Creek Farm
2014-01-28 05:30:00 13 51 -1.7 2014-02-09 14:43:36 Pearl Creek Farm
2014-01-28 06:00:00 12 54 -1.6 2014-02-09 14:43:36 Pearl Creek Farm
2014-01-28 06:30:00 12 57 -0.3 2014-02-09 14:43:36 Pearl Creek Farm
2014-01-28 07:00:00 12 60 0.7 2014-02-09 14:43:36 Pearl Creek Farm
2014-01-28 07:30:00 12 61 1.2 2014-02-09 14:43:36 Pearl Creek Farm
2014-01-28 08:00:00 12 64 2.2 2014-02-09 14:43:36 Pearl Creek Farm
2014-01-28 08:30:00 13 57 0.5 2014-02-09 14:43:36 Pearl Creek Farm
2014-01-28 09:00:00 13 53 -0.9 2014-02-09 14:43:36 Pearl Creek Farm
2014-01-28 09:30:00 13 50 -2.1 2014-02-09 14:43:36 Pearl Creek Farm
2014-01-28 10:00:00 14 50 -1.4 2014-02-09 14:43:36 Pearl Creek Farm
2014-01-28 10:30:00 15 48 -1.3 2014-02-09 14:43:36 Pearl Creek Farm
2014-01-28 11:00:00 17 45 -0.6 2014-02-09 14:43:36 Pearl Creek Farm
2014-01-28 11:30:00 18 44 -0.2 2014-02-09 14:43:36 Pearl Creek Farm
2014-01-28 12:00:00 19 42 -0.2 2014-02-09 14:43:36 Pearl Creek Farm
2014-01-28 12:30:00 20 41 -0.1 2014-02-09 14:43:36 Pearl Creek Farm
2014-01-28 13:00:00 21 40 0.3 2014-02-09 14:43:36 Pearl Creek Farm
2014-01-28 13:30:00 22 39 0.6 2014-02-09 14:43:36 Pearl Creek Farm
2014-01-28 14:00:00 22 38 0.4 2014-02-09 14:43:36 Pearl Creek Farm
2014-01-28 14:30:00 23 38 1.3 2014-02-09 14:43:36 Pearl Creek Farm
2014-01-28 15:00:00 24 38 2.2 2014-02-09 14:43:36 Pearl Creek Farm
2014-01-28 15:30:00 24 39 2.7 2014-02-09 14:43:36 Pearl Creek Farm
2014-01-28 16:00:00 24 40 3.3 2014-02-09 14:43:36 Pearl Creek Farm
2014-01-28 16:30:00 23 41 2.6 2014-02-09 14:43:36 Pearl Creek Farm
2014-01-28 17:00:00 23 42 3.1 2014-02-09 14:43:36 Pearl Creek Farm
2014-01-28 17:30:00 22 44 3.2 2014-02-09 14:43:36 Pearl Creek Farm
2014-01-28 18:00:00 19 51 3.7 2014-02-09 14:43:36 Pearl Creek Farm
2014-01-28 18:30:00 17 58 4.6 2014-02-09 14:43:36 Pearl Creek Farm
2014-01-28 19:00:00 16 61 5.0 2014-02-09 14:43:36 Pearl Creek Farm
2014-01-28 19:30:00 15 64 5.1 2014-02-09 14:43:36 Pearl Creek Farm
2014-01-28 20:00:00 13 67 4.2 2014-02-09 14:43:36 Pearl Creek Farm
2014-01-28 20:30:00 13 67 4.2 2014-02-09 14:43:36 Pearl Creek Farm
2014-01-28 21:00:00 13 66 3.8 2014-02-09 14:43:36 Pearl Creek Farm
2014-01-28 21:30:00 12 66 2.9 2014-02-09 14:43:36 Pearl Creek Farm
2014-01-28 22:00:00 11 68 2.4 2014-02-09 14:43:36 Pearl Creek Farm
2014-01-28 22:30:00 11 70 3.2 2014-02-09 14:43:36 Pearl Creek Farm
2014-01-28 23:00:00 11 71 3.3 2014-02-09 14:43:36 Pearl Creek Farm
2014-01-28 23:30:00 10 71 2.5 2014-02-09 14:43:36 Pearl Creek Farm

A total of 48 rows are displayed.